createdAt,value
2019-05-07T00:02:08.041Z,96838.75
2019-05-07T00:04:38.538Z,96840.63
2019-05-07T00:07:09.235Z,96838.81
2019-05-07T00:09:39.611Z,96851.25
2019-05-07T00:12:12.463Z,96840.57
2019-05-07T00:14:42.971Z,96844.38
2019-05-07T00:17:14.456Z,96843.86
2019-05-07T00:19:44.735Z,96842.55
2019-05-07T00:22:15.157Z,96840.12
2019-05-07T00:24:45.555Z,96844.98
2019-05-07T00:27:15.966Z,96838.31
2019-05-07T00:29:46.453Z,96840.99
2019-05-07T00:32:16.871Z,96840.64
2019-05-07T00:34:51.346Z,96843.33
2019-05-07T00:37:28.202Z,96839.88
2019-05-07T00:40:13.315Z,96845.81
2019-05-07T00:43:02.771Z,96846.31
2019-05-07T00:45:43.969Z,96845.61
2019-05-07T00:48:14.449Z,96842.90
2019-05-07T00:50:46.503Z,96845.39
2019-05-07T00:53:16.876Z,96843.43
2019-05-07T00:55:47.371Z,96837.53
2019-05-07T00:58:17.806Z,96843.22
2019-05-07T01:00:48.259Z,96846.20
2019-05-07T01:03:18.634Z,96836.31
2019-05-07T01:05:49.018Z,96842.88
2019-05-07T01:08:19.413Z,96841.19
2019-05-07T01:10:49.848Z,96842.95
2019-05-07T01:13:20.363Z,96842.24
2019-05-07T01:15:52.994Z,96835.53
2019-05-07T01:18:23.465Z,96833.34
2019-05-07T01:20:53.962Z,96839.22
2019-05-07T01:23:24.351Z,96839.58
2019-05-07T01:25:54.711Z,96832.95
2019-05-07T01:28:25.033Z,96845.23
2019-05-07T01:30:55.491Z,96831.81
2019-05-07T01:33:42.383Z,96834.24
2019-05-07T01:36:22.619Z,96829.14
2019-05-07T01:38:53.289Z,96831.30
2019-05-07T01:41:23.751Z,96842.72
2019-05-07T01:43:54.276Z,96832.32
2019-05-07T01:46:24.903Z,96835.17
2019-05-07T01:48:57.480Z,96830.64
2019-05-07T01:51:27.263Z,96833.64
2019-05-07T01:53:57.705Z,96834.04
2019-05-07T01:56:28.006Z,96830.16
2019-05-07T01:58:58.442Z,96828.64
2019-05-07T02:01:28.878Z,96831.84
2019-05-07T02:04:27.414Z,96831.81
2019-05-07T02:07:15.378Z,96830.91
2019-05-07T02:09:54.273Z,96825.73
2019-05-07T02:12:31.895Z,96821.47
2019-05-07T02:15:02.828Z,96826.23
2019-05-07T02:17:33.422Z,96828.87
2019-05-07T02:20:03.894Z,96830.92
2019-05-07T02:22:34.320Z,96821.11
2019-05-07T02:25:04.796Z,96821.48
2019-05-07T02:27:35.214Z,96816.97
2019-05-07T02:30:06.067Z,96816.48
2019-05-07T02:32:36.371Z,96820.36
2019-05-07T02:35:06.928Z,96812.55
2019-05-07T02:37:51.106Z,96810.08
2019-05-07T02:40:45.577Z,96816.59
2019-05-07T02:43:16.046Z,96812.52
2019-05-07T02:46:20.573Z,96811.29
2019-05-07T02:48:43.573Z,96807.99
2019-05-07T02:51:23.811Z,96808.34
2019-05-07T02:54:03.637Z,96806.03
2019-05-07T02:56:34.285Z,96803.67
2019-05-07T02:59:04.683Z,96799.22
2019-05-07T03:01:35.125Z,96800.06
2019-05-07T03:04:05.552Z,96797.22
2019-05-07T03:06:36.108Z,96795.83
2019-05-07T03:09:07.652Z,96798.28
2019-05-07T03:11:38.201Z,96793.81
2019-05-07T03:14:08.643Z,96795.91
2019-05-07T03:16:44.302Z,96795.81
2019-05-07T03:19:13.386Z,96794.52
2019-05-07T03:21:56.066Z,96792.98
2019-05-07T03:24:52.687Z,96798.51
2019-05-07T03:27:23.414Z,96790.30
2019-05-07T03:30:17.401Z,96789.83
2019-05-07T03:32:56.556Z,96789.00
2019-05-07T03:35:37.395Z,96787.22
2019-05-07T03:38:04.864Z,96797.45
2019-05-07T03:40:36.609Z,96790.52
2019-05-07T03:43:07.004Z,96795.93
2019-05-07T03:45:49.528Z,96790.88
2019-05-07T03:48:23.921Z,96791.02
2019-05-07T03:50:53.775Z,96792.03
2019-05-07T03:53:24.725Z,96791.70
2019-05-07T03:55:55.179Z,96796.88
2019-05-07T03:58:25.581Z,96787.48
2019-05-07T04:00:56.090Z,96792.16
2019-05-07T04:03:26.512Z,96792.39
2019-05-07T04:05:56.980Z,96794.97
2019-05-07T04:08:27.354Z,96795.70
2019-05-07T04:10:57.786Z,96794.39
2019-05-07T04:13:28.183Z,96793.53
2019-05-07T04:15:58.587Z,96782.08
2019-05-07T04:18:28.989Z,96785.69
2019-05-07T04:20:59.304Z,96789.19
2019-05-07T04:23:29.615Z,96784.78
2019-05-07T04:26:16.800Z,96795.16
2019-05-07T04:28:55.218Z,96789.49
2019-05-07T04:31:27.641Z,96797.42
2019-05-07T04:34:00.157Z,96803.72
2019-05-07T04:36:34.349Z,96799.88
2019-05-07T04:39:07.016Z,96795.73
2019-05-07T04:41:37.518Z,96802.04
2019-05-07T04:44:07.930Z,96798.75
2019-05-07T04:46:38.366Z,96800.55
2019-05-07T04:49:08.807Z,96808.16
2019-05-07T04:52:04.039Z,96804.27
2019-05-07T04:54:33.329Z,96803.25
2019-05-07T04:57:05.422Z,96807.33
2019-05-07T04:59:35.774Z,96803.23
2019-05-07T05:02:18.464Z,96813.91
2019-05-07T05:04:48.897Z,96807.15
2019-05-07T05:07:19.332Z,96807.33
2019-05-07T05:09:49.785Z,96809.23
2019-05-07T05:12:22.464Z,96808.17
2019-05-07T05:14:52.478Z,96811.61
2019-05-07T05:17:23.043Z,96809.69
2019-05-07T05:19:53.437Z,96806.28
2019-05-07T05:22:32.847Z,96809.51
2019-05-07T05:25:24.317Z,96815.05
2019-05-07T05:27:54.707Z,96815.00
2019-05-07T05:30:35.373Z,96807.98
2019-05-07T05:33:05.868Z,96812.91
2019-05-07T05:35:36.446Z,96812.89
2019-05-07T05:38:06.992Z,96812.03
2019-05-07T05:40:37.384Z,96817.54
2019-05-07T05:43:17.997Z,96818.79
2019-05-07T05:45:53.259Z,96819.07
2019-05-07T05:48:24.138Z,96822.75
2019-05-07T05:51:02.689Z,96818.90
2019-05-07T05:53:40.021Z,96818.42
2019-05-07T05:56:18.964Z,96828.00
2019-05-07T05:59:27.905Z,96825.30
2019-05-07T06:02:06.760Z,96828.89
2019-05-07T06:04:48.001Z,96825.02
2019-05-07T06:07:29.162Z,96825.44
2019-05-07T06:10:12.845Z,96824.97
2019-05-07T06:13:02.387Z,96824.80
2019-05-07T06:15:59.998Z,96821.93
2019-05-07T06:19:02.030Z,96825.55
2019-05-07T06:21:52.594Z,96825.37
2019-05-07T06:24:35.219Z,96821.69
2019-05-07T06:27:05.859Z,96827.12
2019-05-07T06:29:36.298Z,96822.58
2019-05-07T06:32:09.438Z,96829.61
2019-05-07T06:34:42.513Z,96821.31
2019-05-07T06:37:11.965Z,96824.59
2019-05-07T06:39:47.979Z,96826.27
2019-05-07T06:42:43.076Z,96825.95
2019-05-07T06:45:35.572Z,96825.29
2019-05-07T06:48:06.191Z,96828.88
2019-05-07T06:50:36.544Z,96826.60
2019-05-07T06:53:06.943Z,96827.72
2019-05-07T06:55:37.360Z,96829.28
2019-05-07T06:58:12.224Z,96829.36
2019-05-07T07:01:02.217Z,96823.09
2019-05-07T07:03:41.966Z,96820.61
2019-05-07T07:06:25.707Z,96820.52
2019-05-07T07:09:24.000Z,96816.40
2019-05-07T07:11:58.543Z,96825.33
2019-05-07T07:14:28.930Z,96820.59
2019-05-07T07:16:59.387Z,96817.72
2019-05-07T07:19:32.017Z,96815.98
2019-05-07T07:22:02.443Z,96812.92
2019-05-07T07:24:32.994Z,96811.96
2019-05-07T07:27:03.639Z,96805.89
2019-05-07T07:29:35.698Z,96807.80
2019-05-07T07:32:07.566Z,96792.73
2019-05-07T07:34:44.432Z,96795.73
2019-05-07T07:37:37.842Z,96793.23
2019-05-07T07:40:33.939Z,96791.59
2019-05-07T07:43:07.011Z,96780.71
2019-05-07T07:45:36.600Z,96777.25
2019-05-07T07:48:07.134Z,96785.32
2019-05-07T07:50:37.507Z,96784.11
2019-05-07T07:53:07.961Z,96778.72
2019-05-07T07:55:43.676Z,96784.79
2019-05-07T07:58:25.354Z,96779.71
2019-05-07T08:01:12.209Z,96781.98
2019-05-07T08:03:42.788Z,96777.70
2019-05-07T08:06:13.163Z,96779.03
2019-05-07T08:08:43.506Z,96774.31
2019-05-07T08:11:13.977Z,96762.31
2019-05-07T08:13:44.343Z,96763.72
2019-05-07T08:16:14.796Z,96762.83
2019-05-07T08:18:45.216Z,96766.01
2019-05-07T08:21:15.712Z,96759.73
2019-05-07T08:23:46.175Z,96752.05
2019-05-07T08:26:16.593Z,96762.61
2019-05-07T08:28:47.101Z,96759.59
2019-05-07T08:31:36.387Z,96761.45
2019-05-07T08:34:18.211Z,96755.83
2019-05-07T08:36:49.916Z,96756.36
2019-05-07T08:39:22.334Z,96744.34
2019-05-07T08:41:52.783Z,96749.55
2019-05-07T08:44:26.878Z,96750.25
2019-05-07T08:47:06.116Z,96749.92
2019-05-07T08:49:40.202Z,96744.30
2019-05-07T08:52:11.833Z,96738.30
2019-05-07T08:54:42.829Z,96746.24
2019-05-07T08:57:13.435Z,96745.86
2019-05-07T08:59:57.199Z,96742.43
2019-05-07T09:02:15.914Z,96747.59
2019-05-07T09:04:46.361Z,96739.62
2019-05-07T09:07:16.787Z,96746.48
2019-05-07T09:09:47.334Z,96741.40
2019-05-07T09:12:17.699Z,96739.25
2019-05-07T09:14:48.124Z,96741.64
2019-05-07T09:17:18.478Z,96743.68
2019-05-07T09:19:52.130Z,96743.09
2019-05-07T09:22:23.029Z,96735.15
2019-05-07T09:24:53.402Z,96741.36
2019-05-07T09:27:36.182Z,96735.46
2019-05-07T09:30:22.053Z,96735.58
2019-05-07T09:32:56.531Z,96732.75
2019-05-07T09:35:32.500Z,96729.25
2019-05-07T09:38:03.294Z,96717.92
2019-05-07T09:40:33.770Z,96715.47
2019-05-07T09:43:04.145Z,96716.58
2019-05-07T09:45:34.612Z,96704.20
2019-05-07T09:48:05.141Z,96703.88
2019-05-07T09:50:35.524Z,96700.00
2019-05-07T09:53:05.997Z,96698.99
2019-05-07T09:55:36.451Z,96695.88
2019-05-07T09:58:06.940Z,96697.17
2019-05-07T10:00:38.218Z,96687.05
2019-05-07T10:03:08.696Z,96695.86
2019-05-07T10:05:39.205Z,96692.92
2019-05-07T10:08:09.774Z,96687.16
2019-05-07T10:10:41.678Z,96687.32
2019-05-07T10:13:43.064Z,96684.00
2019-05-07T10:16:16.508Z,96683.29
2019-05-07T10:18:46.999Z,96683.66
2019-05-07T10:21:17.504Z,96679.84
2019-05-07T10:23:48.012Z,96683.91
2019-05-07T10:26:18.982Z,96680.21
2019-05-07T10:28:49.418Z,96678.70
2019-05-07T10:31:19.865Z,96673.84
2019-05-07T10:33:52.271Z,96674.84
2019-05-07T10:36:22.893Z,96669.97
2019-05-07T10:38:53.326Z,96669.41
2019-05-07T10:41:23.866Z,96670.99
2019-05-07T10:43:54.302Z,96671.09
2019-05-07T10:46:34.543Z,96666.19
2019-05-07T10:49:14.914Z,96663.45
2019-05-07T10:51:45.519Z,96657.22
2019-05-07T10:54:16.116Z,96654.25
2019-05-07T10:56:46.511Z,96659.91
2019-05-07T10:59:17.026Z,96652.88
2019-05-07T11:01:59.797Z,96643.28
2019-05-07T11:04:40.209Z,96650.17
2019-05-07T11:07:02.285Z,96637.74
2019-05-07T11:09:32.906Z,96640.66
2019-05-07T11:12:03.255Z,96638.97
2019-05-07T11:14:33.732Z,96629.81
2019-05-07T11:17:32.633Z,96628.48
2019-05-07T11:20:03.751Z,96625.08
2019-05-07T11:22:34.430Z,96624.34
2019-05-07T11:25:05.418Z,96626.91
2019-05-07T11:27:35.971Z,96612.28
2019-05-07T11:30:07.118Z,96603.43
2019-05-07T11:32:37.542Z,96607.05
2019-05-07T11:35:08.429Z,96599.30
2019-05-07T11:37:39.020Z,96587.77
2019-05-07T11:40:09.767Z,96594.34
2019-05-07T11:43:05.020Z,96588.33
2019-05-07T11:45:44.710Z,96589.28
2019-05-07T11:48:15.931Z,96585.59
2019-05-07T11:51:08.090Z,96583.52
2019-05-07T11:53:41.884Z,96588.23
2019-05-07T11:56:12.583Z,96572.80
2019-05-07T11:58:43.028Z,96580.08
2019-05-07T12:01:17.839Z,96576.02
2019-05-07T12:03:48.274Z,96566.26
2019-05-07T12:06:18.688Z,96571.07
2019-05-07T12:08:51.995Z,96565.34
2019-05-07T12:11:21.910Z,96558.05
2019-05-07T12:13:53.053Z,96552.09
2019-05-07T12:16:23.662Z,96552.17
2019-05-07T12:18:55.510Z,96552.16
2019-05-07T12:21:26.060Z,96555.12
2019-05-07T12:23:56.400Z,96556.51
2019-05-07T12:26:27.727Z,96557.50
2019-05-07T12:28:58.205Z,96549.33
2019-05-07T12:31:43.793Z,96542.91
2019-05-07T12:34:18.060Z,96551.53
2019-05-07T12:36:48.490Z,96540.52
2019-05-07T12:39:18.942Z,96533.75
2019-05-07T12:41:49.444Z,96533.86
2019-05-07T12:44:22.054Z,96531.22
2019-05-07T12:46:52.544Z,96527.97
2019-05-07T12:49:22.999Z,96520.45
2019-05-07T12:52:12.660Z,96524.52
2019-05-07T12:54:57.313Z,96517.97
2019-05-07T12:57:27.764Z,96513.05
2019-05-07T13:00:17.020Z,96504.28
2019-05-07T13:03:07.509Z,96510.62
2019-05-07T13:05:37.955Z,96511.45
2019-05-07T13:08:08.576Z,96502.20
2019-05-07T13:10:39.029Z,96504.49
2019-05-07T13:13:09.439Z,96505.36
2019-05-07T13:15:39.772Z,96499.90
2019-05-07T13:18:10.244Z,96507.24
2019-05-07T13:20:40.677Z,96495.39
2019-05-07T13:23:12.001Z,96496.61
2019-05-07T13:25:43.031Z,96496.02
2019-05-07T13:28:13.702Z,96491.88
2019-05-07T13:30:44.104Z,96496.59
2019-05-07T13:33:16.846Z,96487.73
2019-05-07T13:35:48.685Z,96481.06
2019-05-07T13:38:33.293Z,96483.84
2019-05-07T13:41:23.237Z,96486.47
2019-05-07T13:44:18.707Z,96489.47
2019-05-07T13:46:53.041Z,96481.82
2019-05-07T13:49:23.807Z,96478.42
2019-05-07T13:52:02.827Z,96473.47
2019-05-07T13:54:26.482Z,96472.81
2019-05-07T13:56:56.907Z,96466.59
2019-05-07T13:59:27.316Z,96457.12
2019-05-07T14:02:05.410Z,96459.38
2019-05-07T14:04:35.803Z,96451.57
2019-05-07T14:07:06.271Z,96456.41
2019-05-07T14:09:36.658Z,96453.10
2019-05-07T14:12:07.147Z,96449.49
2019-05-07T14:14:37.912Z,96455.17
2019-05-07T14:17:08.315Z,96446.33
2019-05-07T14:19:38.706Z,96453.19
2019-05-07T14:22:17.953Z,96451.55
2019-05-07T14:24:42.190Z,96445.11
2019-05-07T14:27:12.870Z,96442.78
2019-05-07T14:29:43.301Z,96442.34
2019-05-07T14:32:42.126Z,96434.98
2019-05-07T14:35:32.629Z,96433.45
2019-05-07T14:38:07.098Z,96435.69
2019-05-07T14:40:37.505Z,96423.55
2019-05-07T14:43:12.825Z,96414.72
2019-05-07T14:45:43.422Z,96414.55
2019-05-07T14:48:13.874Z,96417.57
2019-05-07T14:50:44.971Z,96422.39
2019-05-07T14:53:15.662Z,96413.13
2019-05-07T14:55:46.134Z,96418.08
2019-05-07T14:58:16.568Z,96423.38
2019-05-07T15:00:46.858Z,96422.53
2019-05-07T15:03:17.260Z,96419.56
2019-05-07T15:05:47.654Z,96416.47
2019-05-07T15:08:18.143Z,96416.89
2019-05-07T15:10:48.962Z,96414.70
2019-05-07T15:13:21.649Z,96416.20
2019-05-07T15:15:52.571Z,96419.60
2019-05-07T15:18:32.247Z,96417.44
2019-05-07T15:21:02.690Z,96420.30
2019-05-07T15:23:35.818Z,96416.66
2019-05-07T15:26:06.465Z,96410.88
2019-05-07T15:28:38.694Z,96414.08
2019-05-07T15:31:18.131Z,96414.84
2019-05-07T15:33:48.633Z,96420.36
2019-05-07T15:36:19.080Z,96416.63
2019-05-07T15:38:49.485Z,96412.84
2019-05-07T15:41:19.815Z,96406.77
2019-05-07T15:43:52.140Z,96408.03
2019-05-07T15:46:22.707Z,96410.19
2019-05-07T15:48:53.297Z,96410.51
2019-05-07T15:51:23.745Z,96408.28
2019-05-07T15:53:58.505Z,96412.84
2019-05-07T15:56:29.024Z,96403.62
2019-05-07T15:58:59.367Z,96402.74
2019-05-07T16:01:29.878Z,96401.95
2019-05-07T16:04:02.612Z,96404.41
2019-05-07T16:06:32.512Z,96401.30
2019-05-07T16:09:04.626Z,96400.38
2019-05-07T16:11:35.344Z,96397.34
2019-05-07T16:14:32.084Z,96394.44
2019-05-07T16:17:12.944Z,96394.10
2019-05-07T16:19:43.313Z,96388.03
2019-05-07T16:22:19.090Z,96390.80
2019-05-07T16:24:49.505Z,96389.14
2019-05-07T16:27:19.964Z,96383.40
2019-05-07T16:29:52.524Z,96386.95
2019-05-07T16:32:24.200Z,96384.88
2019-05-07T16:34:55.010Z,96381.47
2019-05-07T16:37:25.406Z,96383.69
2019-05-07T16:39:55.851Z,96384.73
2019-05-07T16:42:26.310Z,96380.22
2019-05-07T16:44:56.774Z,96392.19
2019-05-07T16:47:27.141Z,96393.05
2019-05-07T16:49:57.483Z,96390.92
2019-05-07T16:52:28.015Z,96388.13
2019-05-07T16:54:59.658Z,96389.66
2019-05-07T16:57:48.890Z,96383.75
2019-05-07T17:00:29.217Z,96384.00
2019-05-07T17:03:02.194Z,96378.34
2019-05-07T17:05:32.829Z,96376.38
2019-05-07T17:08:22.372Z,96371.23
2019-05-07T17:10:53.182Z,96374.36
2019-05-07T17:13:23.641Z,96371.48
2019-05-07T17:16:03.349Z,96372.28
2019-05-07T17:18:34.043Z,96368.23
2019-05-07T17:21:04.574Z,96362.65
2019-05-07T17:23:44.114Z,96363.00
2019-05-07T17:26:07.153Z,96361.69
2019-05-07T17:28:37.905Z,96366.34
2019-05-07T17:31:08.353Z,96366.89
2019-05-07T17:33:38.783Z,96369.15
2019-05-07T17:36:09.355Z,96374.45
2019-05-07T17:38:39.637Z,96373.39
2019-05-07T17:41:18.179Z,96371.27
2019-05-07T17:43:42.252Z,96363.30
2019-05-07T17:46:12.609Z,96361.78
2019-05-07T17:48:43.061Z,96354.45
2019-05-07T17:51:32.412Z,96361.76
2019-05-07T17:54:02.959Z,96364.60
2019-05-07T17:56:33.333Z,96363.30
2019-05-07T17:59:03.791Z,96359.56
2019-05-07T18:01:44.884Z,96361.81
2019-05-07T18:04:15.391Z,96355.83
2019-05-07T18:06:45.970Z,96357.23
2019-05-07T18:09:16.353Z,96361.79
2019-05-07T18:11:46.645Z,96359.06
2019-05-07T18:14:17.117Z,96364.61
2019-05-07T18:17:15.833Z,96359.92
2019-05-07T18:19:50.336Z,96360.41
2019-05-07T18:22:22.153Z,96352.91
2019-05-07T18:24:52.941Z,96357.84
2019-05-07T18:27:25.080Z,96354.07
2019-05-07T18:29:55.581Z,96351.33
2019-05-07T18:32:32.417Z,96352.28
2019-05-07T18:35:02.974Z,96352.85
2019-05-07T18:37:33.379Z,96354.61
2019-05-07T18:40:03.852Z,96346.06
2019-05-07T18:42:34.303Z,96348.34
2019-05-07T18:45:04.871Z,96344.59
2019-05-07T18:47:35.318Z,96344.73
2019-05-07T18:50:05.849Z,96350.58
2019-05-07T18:52:36.728Z,96349.81
2019-05-07T18:55:07.463Z,96356.16
2019-05-07T18:57:37.905Z,96353.38
2019-05-07T19:00:13.431Z,96352.21
2019-05-07T19:02:43.906Z,96347.33
2019-05-07T19:05:14.317Z,96351.34
2019-05-07T19:07:44.709Z,96356.36
2019-05-07T19:10:15.517Z,96349.03
2019-05-07T19:12:46.061Z,96356.63
2019-05-07T19:15:17.158Z,96354.94
2019-05-07T19:17:47.661Z,96359.52
2019-05-07T19:20:18.132Z,96357.33
2019-05-07T19:22:48.451Z,96354.16
2019-05-07T19:25:18.797Z,96356.78
2019-05-07T19:27:49.296Z,96350.95
2019-05-07T19:30:21.795Z,96348.79
2019-05-07T19:32:52.249Z,96354.45
2019-05-07T19:35:23.240Z,96350.79
2019-05-07T19:37:53.699Z,96351.20
2019-05-07T19:40:24.112Z,96350.47
2019-05-07T19:42:54.774Z,96342.98
2019-05-07T19:45:25.423Z,96347.64
2019-05-07T19:47:55.835Z,96349.84
2019-05-07T19:50:26.326Z,96353.75
2019-05-07T19:52:56.677Z,96353.55
2019-05-07T19:55:27.127Z,96350.55
2019-05-07T19:58:01.759Z,96349.89
2019-05-07T20:00:32.790Z,96352.39
2019-05-07T20:03:03.570Z,96354.61
2019-05-07T20:05:37.162Z,96354.78
2019-05-07T20:08:06.064Z,96352.91
2019-05-07T20:10:42.275Z,96352.50
2019-05-07T20:13:12.972Z,96351.23
2019-05-07T20:15:46.617Z,96345.39
2019-05-07T20:18:17.034Z,96349.99
2019-05-07T20:20:47.394Z,96348.75
2019-05-07T20:23:20.147Z,96348.91
2019-05-07T20:25:52.760Z,96346.84
2019-05-07T20:28:22.678Z,96348.20
2019-05-07T20:30:56.009Z,96337.79
2019-05-07T20:33:25.239Z,96336.13
2019-05-07T20:35:55.610Z,96337.50
2019-05-07T20:38:26.125Z,96343.07
2019-05-07T20:40:56.544Z,96337.54
2019-05-07T20:43:26.988Z,96332.98
2019-05-07T20:45:57.418Z,96340.80
2019-05-07T20:48:27.831Z,96343.76
2019-05-07T20:50:58.279Z,96340.84
2019-05-07T20:53:46.204Z,96340.52
2019-05-07T20:56:18.114Z,96339.56
2019-05-07T20:58:48.509Z,96341.84
2019-05-07T21:01:18.830Z,96350.14
2019-05-07T21:03:49.302Z,96349.67
2019-05-07T21:06:19.662Z,96341.18
2019-05-07T21:08:50.119Z,96336.30
2019-05-07T21:11:22.557Z,96339.25
2019-05-07T21:13:52.713Z,96332.73
2019-05-07T21:16:23.123Z,96335.48
2019-05-07T21:18:53.526Z,96344.45
2019-05-07T21:21:23.978Z,96338.44
2019-05-07T21:23:54.436Z,96337.63
2019-05-07T21:26:24.899Z,96332.55
2019-05-07T21:28:55.398Z,96325.25
2019-05-07T21:31:25.749Z,96327.67
2019-05-07T21:33:56.159Z,96320.04
2019-05-07T21:36:27.571Z,96321.69
2019-05-07T21:38:57.981Z,96316.80
2019-05-07T21:41:28.252Z,96324.91
2019-05-07T21:43:58.720Z,96326.72
2019-05-07T21:46:29.113Z,96332.72
2019-05-07T21:48:59.595Z,96327.50
2019-05-07T21:51:30.025Z,96326.99
2019-05-07T21:54:11.968Z,96328.16
2019-05-07T21:56:52.212Z,96325.71
2019-05-07T21:59:25.190Z,96329.45
2019-05-07T22:02:02.071Z,96322.48
2019-05-07T22:04:32.034Z,96320.53
2019-05-07T22:07:03.007Z,96319.05
2019-05-07T22:09:33.463Z,96322.60
2019-05-07T22:12:03.902Z,96324.19
2019-05-07T22:14:34.330Z,96317.89
2019-05-07T22:17:05.447Z,96320.13
2019-05-07T22:19:35.784Z,96315.08
2019-05-07T22:22:06.261Z,96317.34
2019-05-07T22:24:36.551Z,96310.84
2019-05-07T22:27:07.028Z,96310.52
2019-05-07T22:29:37.350Z,96303.70
2019-05-07T22:32:30.787Z,96294.23
2019-05-07T22:35:15.092Z,96294.23
2019-05-07T22:37:45.587Z,96288.91
2019-05-07T22:40:16.442Z,96293.00
2019-05-07T22:42:46.824Z,96286.19
2019-05-07T22:45:17.600Z,96283.26
2019-05-07T22:47:48.259Z,96277.87
2019-05-07T22:50:18.971Z,96272.84
2019-05-07T22:52:49.758Z,96273.16
2019-05-07T22:55:21.827Z,96271.19
2019-05-07T22:58:00.994Z,96273.81
2019-05-07T23:00:38.062Z,96272.83
2019-05-07T23:03:08.696Z,96266.16
2019-05-07T23:05:39.140Z,96261.45
2019-05-07T23:08:09.720Z,96265.34
2019-05-07T23:10:42.124Z,96262.58
2019-05-07T23:13:13.081Z,96260.45
2019-05-07T23:15:44.556Z,96256.53
2019-05-07T23:18:14.989Z,96258.81
2019-05-07T23:20:45.529Z,96264.03
2019-05-07T23:23:16.007Z,96258.48
2019-05-07T23:25:49.312Z,96257.50
2019-05-07T23:28:19.792Z,96250.66
2019-05-07T23:30:51.816Z,96250.02
2019-05-07T23:33:22.755Z,96249.34
2019-05-07T23:35:53.371Z,96249.99
2019-05-07T23:38:23.982Z,96249.20
2019-05-07T23:41:02.610Z,96247.72
2019-05-07T23:43:33.781Z,96250.34
2019-05-07T23:46:04.523Z,96245.96
2019-05-07T23:48:35.086Z,96249.88
2019-05-07T23:51:05.613Z,96237.34
2019-05-07T23:53:36.169Z,96239.14
2019-05-07T23:56:07.005Z,96234.92
2019-05-07T23:58:37.494Z,96229.20
